sensor_id;sensor_type;location;lat;lon;timestamp;pressure;altitude;pressure_sealevel;temperature;humidity
72336;BME280;65062;48.446;8.834;2023-04-23T00:02:09;96913.28;;;11.46;77.76
72336;BME280;65062;48.446;8.834;2023-04-23T00:05:13;96919.91;;;11.75;75.25
72336;BME280;65062;48.446;8.834;2023-04-23T00:08:17;96918.69;;;11.71;75.53
72336;BME280;65062;48.446;8.834;2023-04-23T00:11:17;96914.88;;;11.73;76.75
72336;BME280;65062;48.446;8.834;2023-04-23T00:14:18;96911.22;;;11.68;77.62
72336;BME280;65062;48.446;8.834;2023-04-23T00:17:19;96916.28;;;11.56;76.88
72336;BME280;65062;48.446;8.834;2023-04-23T00:20:20;96914.06;;;11.53;78.42
72336;BME280;65062;48.446;8.834;2023-04-23T00:23:20;96911.44;;;11.53;76.50
72336;BME280;65062;48.446;8.834;2023-04-23T00:26:21;96920.31;;;11.72;76.45
72336;BME280;65062;48.446;8.834;2023-04-23T00:29:21;96923.16;;;11.70;76.79
72336;BME280;65062;48.446;8.834;2023-04-23T00:32:21;96922.56;;;12.19;70.69
72336;BME280;65062;48.446;8.834;2023-04-23T00:35:22;96915.31;;;12.14;72.26
72336;BME280;65062;48.446;8.834;2023-04-23T00:38:22;96914.03;;;12.30;72.06
72336;BME280;65062;48.446;8.834;2023-04-23T00:41:23;96922.75;;;12.55;69.08
72336;BME280;65062;48.446;8.834;2023-04-23T00:44:23;96920.25;;;12.66;68.72
72336;BME280;65062;48.446;8.834;2023-04-23T00:47:24;96930.53;;;12.68;69.27
72336;BME280;65062;48.446;8.834;2023-04-23T00:50:25;96924.34;;;12.56;70.44
72336;BME280;65062;48.446;8.834;2023-04-23T00:53:25;96932.88;;;12.51;70.12
72336;BME280;65062;48.446;8.834;2023-04-23T00:56:27;96933.34;;;12.35;70.77
72336;BME280;65062;48.446;8.834;2023-04-23T00:59:27;96933.41;;;12.29;71.70
72336;BME280;65062;48.446;8.834;2023-04-23T01:02:29;96937.28;;;12.20;73.15
72336;BME280;65062;48.446;8.834;2023-04-23T01:05:30;96937.63;;;12.36;72.07
72336;BME280;65062;48.446;8.834;2023-04-23T01:08:31;96948.53;;;12.27;72.71
72336;BME280;65062;48.446;8.834;2023-04-23T01:11:32;96939.66;;;12.28;73.80
72336;BME280;65062;48.446;8.834;2023-04-23T01:14:33;96941.34;;;12.09;73.88
72336;BME280;65062;48.446;8.834;2023-04-23T01:17:33;96947.16;;;12.24;74.87
72336;BME280;65062;48.446;8.834;2023-04-23T01:20:34;96944.13;;;12.21;74.83
72336;BME280;65062;48.446;8.834;2023-04-23T01:23:35;96952.47;;;12.49;71.97
72336;BME280;65062;48.446;8.834;2023-04-23T01:26:35;96950.25;;;12.46;73.34
72336;BME280;65062;48.446;8.834;2023-04-23T01:29:37;96953.06;;;12.51;71.88
72336;BME280;65062;48.446;8.834;2023-04-23T01:32:38;96957.69;;;12.55;72.15
72336;BME280;65062;48.446;8.834;2023-04-23T01:35:39;96952.44;;;12.55;72.26
72336;BME280;65062;48.446;8.834;2023-04-23T01:38:40;96952.03;;;12.58;72.87
72336;BME280;65062;48.446;8.834;2023-04-23T01:41:40;96955.31;;;12.47;73.15
72336;BME280;65062;48.446;8.834;2023-04-23T01:44:41;96959.38;;;12.43;73.81
72336;BME280;65062;48.446;8.834;2023-04-23T01:47:41;96968.06;;;12.44;73.54
72336;BME280;65062;48.446;8.834;2023-04-23T01:50:42;96968.00;;;12.50;73.56
72336;BME280;65062;48.446;8.834;2023-04-23T01:53:42;96967.88;;;12.39;73.65
72336;BME280;65062;48.446;8.834;2023-04-23T01:56:43;96968.63;;;12.46;73.68
72336;BME280;65062;48.446;8.834;2023-04-23T01:59:43;96973.13;;;12.39;74.83
72336;BME280;65062;48.446;8.834;2023-04-23T02:02:44;96957.25;;;12.21;75.09
72336;BME280;65062;48.446;8.834;2023-04-23T02:05:44;96966.19;;;12.00;77.54
72336;BME280;65062;48.446;8.834;2023-04-23T02:08:45;96965.22;;;11.95;78.68
72336;BME280;65062;48.446;8.834;2023-04-23T02:11:45;96966.28;;;11.81;77.96
72336;BME280;65062;48.446;8.834;2023-04-23T02:14:45;96963.03;;;11.72;79.59
72336;BME280;65062;48.446;8.834;2023-04-23T02:17:46;96971.94;;;11.78;80.74
72336;BME280;65062;48.446;8.834;2023-04-23T02:20:46;96971.94;;;11.71;80.58
72336;BME280;65062;48.446;8.834;2023-04-23T02:23:46;96968.69;;;11.69;82.72
72336;BME280;65062;48.446;8.834;2023-04-23T02:26:47;96964.88;;;11.59;84.06
72336;BME280;65062;48.446;8.834;2023-04-23T02:29:48;96984.44;;;11.43;84.94
72336;BME280;65062;48.446;8.834;2023-04-23T02:32:48;96979.22;;;11.37;85.57
72336;BME280;65062;48.446;8.834;2023-04-23T02:35:49;96970.34;;;11.18;86.16
72336;BME280;65062;48.446;8.834;2023-04-23T02:38:49;96975.19;;;11.15;86.61
72336;BME280;65062;48.446;8.834;2023-04-23T02:41:50;96973.56;;;11.14;86.71
72336;BME280;65062;48.446;8.834;2023-04-23T02:44:50;96971.75;;;11.08;86.37
72336;BME280;65062;48.446;8.834;2023-04-23T02:47:51;96979.00;;;11.06;87.64
72336;BME280;65062;48.446;8.834;2023-04-23T02:50:52;96972.53;;;11.02;86.99
72336;BME280;65062;48.446;8.834;2023-04-23T02:53:52;96965.69;;;11.01;87.80
72336;BME280;65062;48.446;8.834;2023-04-23T02:56:53;96959.66;;;11.00;87.25
72336;BME280;65062;48.446;8.834;2023-04-23T02:59:53;96955.22;;;11.14;88.05
72336;BME280;65062;48.446;8.834;2023-04-23T03:02:54;96950.00;;;11.07;86.68
72336;BME280;65062;48.446;8.834;2023-04-23T03:05:54;96945.94;;;10.92;87.27
72336;BME280;65062;48.446;8.834;2023-04-23T03:08:54;96957.03;;;10.87;88.61
72336;BME280;65062;48.446;8.834;2023-04-23T03:11:55;96949.97;;;10.75;89.36
72336;BME280;65062;48.446;8.834;2023-04-23T03:14:56;96947.72;;;10.65;88.80
72336;BME280;65062;48.446;8.834;2023-04-23T03:17:57;96952.56;;;10.62;89.23
72336;BME280;65062;48.446;8.834;2023-04-23T03:20:57;96954.38;;;10.61;90.23
72336;BME280;65062;48.446;8.834;2023-04-23T03:23:57;96950.34;;;10.58;90.45
72336;BME280;65062;48.446;8.834;2023-04-23T03:26:58;96952.94;;;10.45;89.88
72336;BME280;65062;48.446;8.834;2023-04-23T03:29:59;96960.00;;;10.58;89.76
72336;BME280;65062;48.446;8.834;2023-04-23T03:32:59;96965.41;;;10.43;90.50
72336;BME280;65062;48.446;8.834;2023-04-23T03:36:01;96966.00;;;10.39;90.38
72336;BME280;65062;48.446;8.834;2023-04-23T03:39:01;96968.75;;;10.31;90.92
72336;BME280;65062;48.446;8.834;2023-04-23T03:42:02;96962.16;;;10.41;91.07
72336;BME280;65062;48.446;8.834;2023-04-23T03:45:02;96968.63;;;10.45;90.29
72336;BME280;65062;48.446;8.834;2023-04-23T03:48:03;96967.63;;;10.46;90.53
72336;BME280;65062;48.446;8.834;2023-04-23T03:51:04;96971.81;;;10.34;90.14
72336;BME280;65062;48.446;8.834;2023-04-23T03:54:04;96974.97;;;10.17;90.82
72336;BME280;65062;48.446;8.834;2023-04-23T03:57:04;96970.16;;;10.20;90.67
72336;BME280;65062;48.446;8.834;2023-04-23T04:00:05;96976.75;;;10.16;90.17
72336;BME280;65062;48.446;8.834;2023-04-23T04:03:10;96981.47;;;9.93;90.42
72336;BME280;65062;48.446;8.834;2023-04-23T04:06:11;96980.00;;;9.84;91.19
72336;BME280;65062;48.446;8.834;2023-04-23T04:09:11;96968.72;;;9.77;91.18
72336;BME280;65062;48.446;8.834;2023-04-23T04:12:12;96972.03;;;9.65;91.39
72336;BME280;65062;48.446;8.834;2023-04-23T04:15:15;96970.50;;;9.70;91.75
72336;BME280;65062;48.446;8.834;2023-04-23T04:18:16;96967.44;;;9.67;89.94
72336;BME280;65062;48.446;8.834;2023-04-23T04:21:17;96968.22;;;9.61;89.72
72336;BME280;65062;48.446;8.834;2023-04-23T04:24:18;96974.16;;;9.48;90.58
72336;BME280;65062;48.446;8.834;2023-04-23T04:27:18;96979.78;;;9.45;90.38
72336;BME280;65062;48.446;8.834;2023-04-23T04:30:18;96967.31;;;9.47;90.21
72336;BME280;65062;48.446;8.834;2023-04-23T04:33:19;96971.00;;;9.53;90.34
72336;BME280;65062;48.446;8.834;2023-04-23T04:36:20;96964.00;;;9.60;90.12
72336;BME280;65062;48.446;8.834;2023-04-23T04:39:21;96962.53;;;9.51;90.29
72336;BME280;65062;48.446;8.834;2023-04-23T04:42:21;96968.75;;;9.50;90.68
72336;BME280;65062;48.446;8.834;2023-04-23T04:45:21;96964.47;;;9.42;91.69
72336;BME280;65062;48.446;8.834;2023-04-23T04:48:23;96964.75;;;9.54;91.59
72336;BME280;65062;48.446;8.834;2023-04-23T04:51:23;96972.34;;;9.49;91.71
72336;BME280;65062;48.446;8.834;2023-04-23T04:54:23;96973.78;;;9.51;91.50
72336;BME280;65062;48.446;8.834;2023-04-23T04:57:24;96972.97;;;9.51;91.99
72336;BME280;65062;48.446;8.834;2023-04-23T05:00:26;96970.59;;;9.56;91.84
72336;BME280;65062;48.446;8.834;2023-04-23T05:03:28;96979.38;;;9.82;90.60
72336;BME280;65062;48.446;8.834;2023-04-23T05:06:28;96980.06;;;9.91;90.19
72336;BME280;65062;48.446;8.834;2023-04-23T05:09:30;96986.13;;;10.04;88.72
72336;BME280;65062;48.446;8.834;2023-04-23T05:12:30;96977.72;;;10.09;89.06
72336;BME280;65062;48.446;8.834;2023-04-23T05:15:30;96963.09;;;10.14;89.53
72336;BME280;65062;48.446;8.834;2023-04-23T05:18:31;96965.34;;;10.24;88.82
72336;BME280;65062;48.446;8.834;2023-04-23T05:21:31;96965.38;;;10.30;88.99
72336;BME280;65062;48.446;8.834;2023-04-23T05:24:32;96968.75;;;10.24;89.73
72336;BME280;65062;48.446;8.834;2023-04-23T05:27:33;96971.78;;;10.28;90.21
72336;BME280;65062;48.446;8.834;2023-04-23T05:30:33;96971.41;;;10.37;89.59
72336;BME280;65062;48.446;8.834;2023-04-23T05:33:34;96975.28;;;10.48;90.48
72336;BME280;65062;48.446;8.834;2023-04-23T05:36:34;96974.31;;;10.69;88.96
72336;BME280;65062;48.446;8.834;2023-04-23T05:39:35;96973.72;;;10.80;88.00
72336;BME280;65062;48.446;8.834;2023-04-23T05:42:35;96981.41;;;10.88;88.12
72336;BME280;65062;48.446;8.834;2023-04-23T05:45:36;96986.88;;;11.06;86.61
72336;BME280;65062;48.446;8.834;2023-04-23T05:48:36;96986.66;;;11.14;86.81
72336;BME280;65062;48.446;8.834;2023-04-23T05:51:38;96977.38;;;11.24;86.84
72336;BME280;65062;48.446;8.834;2023-04-23T05:54:40;96970.94;;;11.33;86.48
72336;BME280;65062;48.446;8.834;2023-04-23T05:57:40;96964.66;;;11.47;84.56
72336;BME280;65062;48.446;8.834;2023-04-23T06:00:41;96968.50;;;11.58;84.48
72336;BME280;65062;48.446;8.834;2023-04-23T06:03:42;96972.13;;;11.76;83.48
72336;BME280;65062;48.446;8.834;2023-04-23T06:06:44;96979.34;;;11.87;82.29
72336;BME280;65062;48.446;8.834;2023-04-23T06:09:44;96970.06;;;11.91;82.33
72336;BME280;65062;48.446;8.834;2023-04-23T06:12:45;96969.44;;;11.96;82.85
72336;BME280;65062;48.446;8.834;2023-04-23T06:15:45;96969.22;;;11.97;81.12
72336;BME280;65062;48.446;8.834;2023-04-23T06:18:46;96962.34;;;12.09;81.57
72336;BME280;65062;48.446;8.834;2023-04-23T06:21:46;96963.72;;;12.12;79.21
72336;BME280;65062;48.446;8.834;2023-04-23T06:24:46;96974.63;;;12.15;77.84
72336;BME280;65062;48.446;8.834;2023-04-23T06:27:47;96972.00;;;12.22;79.17
72336;BME280;65062;48.446;8.834;2023-04-23T06:30:47;96975.81;;;12.26;76.22
72336;BME280;65062;48.446;8.834;2023-04-23T06:33:47;96969.16;;;12.23;75.27
72336;BME280;65062;48.446;8.834;2023-04-23T06:36:49;96976.84;;;12.12;76.36
72336;BME280;65062;48.446;8.834;2023-04-23T06:39:50;96977.66;;;12.06;78.10
72336;BME280;65062;48.446;8.834;2023-04-23T06:42:51;96965.16;;;12.08;78.10
72336;BME280;65062;48.446;8.834;2023-04-23T06:45:51;96956.69;;;12.12;78.84
72336;BME280;65062;48.446;8.834;2023-04-23T06:48:52;96963.16;;;12.10;80.02
72336;BME280;65062;48.446;8.834;2023-04-23T06:51:52;96954.81;;;12.19;78.05
72336;BME280;65062;48.446;8.834;2023-04-23T06:54:52;96950.72;;;12.36;77.60
72336;BME280;65062;48.446;8.834;2023-04-23T06:57:53;96949.28;;;12.40;77.29
72336;BME280;65062;48.446;8.834;2023-04-23T07:00:54;96947.81;;;12.51;76.42
72336;BME280;65062;48.446;8.834;2023-04-23T07:03:54;96952.78;;;12.65;74.79
72336;BME280;65062;48.446;8.834;2023-04-23T07:06:54;96954.59;;;12.96;72.57
72336;BME280;65062;48.446;8.834;2023-04-23T07:09:55;96947.56;;;12.90;70.80
72336;BME280;65062;48.446;8.834;2023-04-23T07:12:55;96944.22;;;13.08;69.85
72336;BME280;65062;48.446;8.834;2023-04-23T07:15:55;96938.63;;;13.04;69.99
72336;BME280;65062;48.446;8.834;2023-04-23T07:18:56;96937.78;;;13.10;70.69
72336;BME280;65062;48.446;8.834;2023-04-23T07:21:56;96927.94;;;13.24;69.52
72336;BME280;65062;48.446;8.834;2023-04-23T07:24:57;96931.03;;;13.39;64.90
72336;BME280;65062;48.446;8.834;2023-04-23T07:27:57;96929.09;;;13.52;66.41
72336;BME280;65062;48.446;8.834;2023-04-23T07:30:58;96919.06;;;13.43;65.16
72336;BME280;65062;48.446;8.834;2023-04-23T07:33:58;96906.91;;;13.48;65.12
72336;BME280;65062;48.446;8.834;2023-04-23T07:36:59;96912.22;;;13.60;66.76
72336;BME280;65062;48.446;8.834;2023-04-23T07:39:59;96926.91;;;13.85;66.53
72336;BME280;65062;48.446;8.834;2023-04-23T07:43:01;96910.03;;;13.93;61.94
72336;BME280;65062;48.446;8.834;2023-04-23T07:46:02;96913.59;;;14.16;64.58
72336;BME280;65062;48.446;8.834;2023-04-23T07:49:02;96915.41;;;14.34;62.41
72336;BME280;65062;48.446;8.834;2023-04-23T07:52:02;96916.16;;;14.41;59.96
72336;BME280;65062;48.446;8.834;2023-04-23T07:55:04;96912.41;;;14.48;60.62
72336;BME280;65062;48.446;8.834;2023-04-23T07:58:04;96919.69;;;14.64;60.73
72336;BME280;65062;48.446;8.834;2023-04-23T08:01:05;96921.66;;;14.81;60.70
72336;BME280;65062;48.446;8.834;2023-04-23T08:04:05;96910.03;;;14.58;59.63
72336;BME280;65062;48.446;8.834;2023-04-23T08:07:05;96909.19;;;14.46;60.81
72336;BME280;65062;48.446;8.834;2023-04-23T08:10:06;96896.13;;;14.51;62.30
72336;BME280;65062;48.446;8.834;2023-04-23T08:13:07;96908.03;;;14.72;61.23
72336;BME280;65062;48.446;8.834;2023-04-23T08:16:07;96908.75;;;15.02;59.57
72336;BME280;65062;48.446;8.834;2023-04-23T08:19:07;96908.59;;;15.50;58.05
72336;BME280;65062;48.446;8.834;2023-04-23T08:22:08;96887.75;;;15.99;57.69
72336;BME280;65062;48.446;8.834;2023-04-23T08:25:10;96880.69;;;16.16;52.89
72336;BME280;65062;48.446;8.834;2023-04-23T08:28:12;96886.59;;;16.35;54.07
72336;BME280;65062;48.446;8.834;2023-04-23T08:31:13;96882.88;;;16.47;54.12
72336;BME280;65062;48.446;8.834;2023-04-23T08:34:14;96891.16;;;16.51;53.30
72336;BME280;65062;48.446;8.834;2023-04-23T08:37:14;96879.53;;;16.52;54.66
72336;BME280;65062;48.446;8.834;2023-04-23T08:40:15;96869.81;;;16.86;53.99
72336;BME280;65062;48.446;8.834;2023-04-23T08:43:18;96872.06;;;16.94;54.76
72336;BME280;65062;48.446;8.834;2023-04-23T08:46:20;96883.28;;;17.01;53.32
72336;BME280;65062;48.446;8.834;2023-04-23T08:49:22;96869.09;;;16.90;52.54
72336;BME280;65062;48.446;8.834;2023-04-23T08:52:24;96863.13;;;16.66;55.15
72336;BME280;65062;48.446;8.834;2023-04-23T08:55:25;96865.34;;;16.02;54.10
72336;BME280;65062;48.446;8.834;2023-04-23T08:58:26;96853.59;;;15.81;53.37
72336;BME280;65062;48.446;8.834;2023-04-23T09:01:27;96853.25;;;15.89;55.65
72336;BME280;65062;48.446;8.834;2023-04-23T09:04:28;96847.34;;;15.99;53.17
72336;BME280;65062;48.446;8.834;2023-04-23T09:07:30;96860.19;;;16.07;52.51
72336;BME280;65062;48.446;8.834;2023-04-23T09:10:31;96852.47;;;16.45;51.64
72336;BME280;65062;48.446;8.834;2023-04-23T09:13:35;96857.00;;;16.78;49.75
72336;BME280;65062;48.446;8.834;2023-04-23T09:16:36;96853.13;;;17.18;50.30
72336;BME280;65062;48.446;8.834;2023-04-23T09:19:38;96857.53;;;17.46;50.36
72336;BME280;65062;48.446;8.834;2023-04-23T09:22:45;96835.00;;;17.27;47.90
72336;BME280;65062;48.446;8.834;2023-04-23T09:25:45;96846.88;;;17.41;50.40
72336;BME280;65062;48.446;8.834;2023-04-23T09:28:48;96837.00;;;17.36;50.40
72336;BME280;65062;48.446;8.834;2023-04-23T09:31:54;96832.22;;;17.50;51.13
72336;BME280;65062;48.446;8.834;2023-04-23T09:34:55;96817.31;;;17.27;49.37
72336;BME280;65062;48.446;8.834;2023-04-23T09:37:56;96810.47;;;17.69;49.48
72336;BME280;65062;48.446;8.834;2023-04-23T09:40:56;96799.59;;;18.14;49.87
72336;BME280;65062;48.446;8.834;2023-04-23T09:43:57;96800.03;;;18.32;49.42
72336;BME280;65062;48.446;8.834;2023-04-23T09:47:07;96807.06;;;18.70;48.62
72336;BME280;65062;48.446;8.834;2023-04-23T09:50:14;96801.59;;;19.23;47.39
72336;BME280;65062;48.446;8.834;2023-04-23T09:53:14;96794.22;;;19.82;43.95
72336;BME280;65062;48.446;8.834;2023-04-23T09:56:14;96807.34;;;19.47;42.02
72336;BME280;65062;48.446;8.834;2023-04-23T09:59:34;96801.28;;;19.15;42.94
72336;BME280;65062;48.446;8.834;2023-04-23T10:02:37;96793.50;;;19.03;45.08
72336;BME280;65062;48.446;8.834;2023-04-23T10:05:40;96790.63;;;18.41;44.29
72336;BME280;65062;48.446;8.834;2023-04-23T10:08:41;96770.25;;;19.15;45.89
72336;BME280;65062;48.446;8.834;2023-04-23T10:11:42;96768.19;;;19.79;41.74
72336;BME280;65062;48.446;8.834;2023-04-23T10:14:45;96756.59;;;20.10;41.73
72336;BME280;65062;48.446;8.834;2023-04-23T10:17:45;96757.72;;;20.19;42.08
72336;BME280;65062;48.446;8.834;2023-04-23T10:20:48;96764.13;;;19.56;41.93
72336;BME280;65062;48.446;8.834;2023-04-23T10:23:50;96759.53;;;19.00;44.32
72336;BME280;65062;48.446;8.834;2023-04-23T10:26:51;96758.94;;;18.88;43.76
72336;BME280;65062;48.446;8.834;2023-04-23T10:29:53;96753.66;;;18.56;44.84
72336;BME280;65062;48.446;8.834;2023-04-23T10:32:54;96751.16;;;18.77;43.20
72336;BME280;65062;48.446;8.834;2023-04-23T10:35:56;96741.63;;;19.17;43.16
72336;BME280;65062;48.446;8.834;2023-04-23T10:38:56;96740.09;;;19.26;40.07
72336;BME280;65062;48.446;8.834;2023-04-23T10:42:00;96749.69;;;18.54;44.68
72336;BME280;65062;48.446;8.834;2023-04-23T10:45:10;96736.19;;;18.55;44.97
72336;BME280;65062;48.446;8.834;2023-04-23T10:48:11;96732.84;;;18.12;45.01
72336;BME280;65062;48.446;8.834;2023-04-23T10:51:11;96737.09;;;18.39;45.52
72336;BME280;65062;48.446;8.834;2023-04-23T10:54:15;96727.94;;;18.25;43.29
72336;BME280;65062;48.446;8.834;2023-04-23T10:57:16;96733.66;;;18.71;44.73
72336;BME280;65062;48.446;8.834;2023-04-23T11:00:16;96723.06;;;19.22;42.74
72336;BME280;65062;48.446;8.834;2023-04-23T11:09:48;96720.19;;;20.05;41.36
72336;BME280;65062;48.446;8.834;2023-04-23T11:12:49;96708.28;;;20.28;41.81
72336;BME280;65062;48.446;8.834;2023-04-23T11:16:22;96708.81;;;20.30;40.02
72336;BME280;65062;48.446;8.834;2023-04-23T11:19:22;96709.28;;;20.07;40.15
72336;BME280;65062;48.446;8.834;2023-04-23T11:22:23;96699.22;;;20.64;39.99
72336;BME280;65062;48.446;8.834;2023-04-23T11:25:25;96686.03;;;21.33;39.93
72336;BME280;65062;48.446;8.834;2023-04-23T11:28:27;96673.31;;;21.78;39.91
72336;BME280;65062;48.446;8.834;2023-04-23T11:31:29;96674.88;;;21.26;38.76
72336;BME280;65062;48.446;8.834;2023-04-23T11:34:31;96670.91;;;21.23;38.28
72336;BME280;65062;48.446;8.834;2023-04-23T11:37:32;96655.88;;;21.47;41.06
72336;BME280;65062;48.446;8.834;2023-04-23T11:40:32;96660.63;;;22.04;40.24
72336;BME280;65062;48.446;8.834;2023-04-23T11:43:33;96665.50;;;21.97;38.33
72336;BME280;65062;48.446;8.834;2023-04-23T11:46:35;96674.50;;;20.68;40.80
72336;BME280;65062;48.446;8.834;2023-04-23T11:49:41;96670.16;;;21.08;40.28
72336;BME280;65062;48.446;8.834;2023-04-23T11:52:43;96671.88;;;21.96;38.18
72336;BME280;65062;48.446;8.834;2023-04-23T11:55:47;96648.84;;;23.85;34.87
72336;BME280;65062;48.446;8.834;2023-04-23T11:58:57;96646.81;;;24.78;33.62
72336;BME280;65062;48.446;8.834;2023-04-23T12:01:58;96638.97;;;23.85;33.64
72336;BME280;65062;48.446;8.834;2023-04-23T12:05:04;96629.22;;;23.57;33.17
72336;BME280;65062;48.446;8.834;2023-04-23T12:08:14;96634.19;;;24.01;35.42
72336;BME280;65062;48.446;8.834;2023-04-23T12:11:15;96621.88;;;26.83;30.31
72336;BME280;65062;48.446;8.834;2023-04-23T12:14:16;96610.84;;;29.43;26.30
72336;BME280;65062;48.446;8.834;2023-04-23T12:17:16;96609.75;;;31.16;23.69
72336;BME280;65062;48.446;8.834;2023-04-23T12:20:20;96605.09;;;32.16;21.35
72336;BME280;65062;48.446;8.834;2023-04-23T12:23:30;96600.63;;;28.91;24.95
72336;BME280;65062;48.446;8.834;2023-04-23T12:26:32;96595.19;;;26.56;28.00
72336;BME280;65062;48.446;8.834;2023-04-23T12:29:34;96594.63;;;26.14;29.15
72336;BME280;65062;48.446;8.834;2023-04-23T12:32:34;96586.06;;;28.28;26.35
72336;BME280;65062;48.446;8.834;2023-04-23T12:35:41;96582.13;;;29.18;24.13
72336;BME280;65062;48.446;8.834;2023-04-23T12:38:42;96586.00;;;30.53;23.00
72336;BME280;65062;48.446;8.834;2023-04-23T12:41:43;96573.66;;;32.70;20.42
72336;BME280;65062;48.446;8.834;2023-04-23T12:44:43;96576.63;;;32.22;20.03
72336;BME280;65062;48.446;8.834;2023-04-23T12:47:43;96568.06;;;31.92;19.76
72336;BME280;65062;48.446;8.834;2023-04-23T12:50:44;96574.88;;;29.60;24.26
72336;BME280;65062;48.446;8.834;2023-04-23T12:53:45;96567.84;;;28.34;23.99
72336;BME280;65062;48.446;8.834;2023-04-23T12:56:45;96562.38;;;26.28;26.02
72336;BME280;65062;48.446;8.834;2023-04-23T12:59:46;96550.78;;;25.53;27.55
72336;BME280;65062;48.446;8.834;2023-04-23T13:02:46;96555.22;;;23.16;31.68
72336;BME280;65062;48.446;8.834;2023-04-23T13:05:47;96554.84;;;22.62;35.14
72336;BME280;65062;48.446;8.834;2023-04-23T13:08:47;96552.81;;;23.88;31.00
72336;BME280;65062;48.446;8.834;2023-04-23T13:11:47;96554.31;;;23.25;33.21
72336;BME280;65062;48.446;8.834;2023-04-23T13:14:48;96548.69;;;26.38;29.30
72336;BME280;65062;48.446;8.834;2023-04-23T13:17:49;96536.72;;;27.48;28.88
72336;BME280;65062;48.446;8.834;2023-04-23T13:20:49;96525.03;;;29.45;24.57
72336;BME280;65062;48.446;8.834;2023-04-23T13:23:50;96524.00;;;28.33;25.33
72336;BME280;65062;48.446;8.834;2023-04-23T13:26:50;96527.13;;;28.44;24.32
72336;BME280;65062;48.446;8.834;2023-04-23T13:29:51;96509.34;;;30.12;23.69
72336;BME280;65062;48.446;8.834;2023-04-23T13:32:51;96489.66;;;30.57;22.68
72336;BME280;65062;48.446;8.834;2023-04-23T13:35:52;96491.47;;;30.65;21.77
72336;BME280;65062;48.446;8.834;2023-04-23T13:38:53;96484.72;;;30.14;21.92
72336;BME280;65062;48.446;8.834;2023-04-23T13:41:55;96481.22;;;29.07;23.96
72336;BME280;65062;48.446;8.834;2023-04-23T13:44:56;96474.19;;;28.10;25.85
72336;BME280;65062;48.446;8.834;2023-04-23T13:47:56;96459.06;;;26.95;27.50
72336;BME280;65062;48.446;8.834;2023-04-23T13:50:57;96470.16;;;24.24;31.51
72336;BME280;65062;48.446;8.834;2023-04-23T13:53:58;96468.94;;;23.20;32.09
72336;BME280;65062;48.446;8.834;2023-04-23T13:56:58;96463.44;;;23.49;36.23
72336;BME280;65062;48.446;8.834;2023-04-23T14:00:00;96461.59;;;26.44;31.36
72336;BME280;65062;48.446;8.834;2023-04-23T14:03:00;96454.09;;;28.83;30.41
72336;BME280;65062;48.446;8.834;2023-04-23T14:06:00;96445.69;;;31.32;23.89
72336;BME280;65062;48.446;8.834;2023-04-23T14:09:02;96444.59;;;32.03;22.69
72336;BME280;65062;48.446;8.834;2023-04-23T14:12:02;96430.78;;;30.26;25.04
72336;BME280;65062;48.446;8.834;2023-04-23T14:15:09;96431.06;;;27.05;29.74
72336;BME280;65062;48.446;8.834;2023-04-23T14:18:10;96426.34;;;24.74;31.08
72336;BME280;65062;48.446;8.834;2023-04-23T14:21:10;96418.50;;;23.83;34.80
72336;BME280;65062;48.446;8.834;2023-04-23T14:24:27;96406.25;;;22.62;35.98
72336;BME280;65062;48.446;8.834;2023-04-23T14:27:33;96394.72;;;21.72;36.48
72336;BME280;65062;48.446;8.834;2023-04-23T14:30:39;96405.41;;;21.10;41.08
72336;BME280;65062;48.446;8.834;2023-04-23T14:33:39;96405.41;;;20.66;41.59
72336;BME280;65062;48.446;8.834;2023-04-23T14:36:40;96413.63;;;20.16;42.36
72336;BME280;65062;48.446;8.834;2023-04-23T14:39:40;96435.25;;;19.35;47.43
72336;BME280;65062;48.446;8.834;2023-04-23T14:42:41;96486.25;;;17.04;58.61
72336;BME280;65062;48.446;8.834;2023-04-23T14:45:41;96468.28;;;14.65;66.94
72336;BME280;65062;48.446;8.834;2023-04-23T14:48:41;96460.97;;;14.16;76.07
72336;BME280;65062;48.446;8.834;2023-04-23T14:51:42;96471.22;;;13.67;75.04
72336;BME280;65062;48.446;8.834;2023-04-23T14:54:43;96438.41;;;13.69;84.64
72336;BME280;65062;48.446;8.834;2023-04-23T14:57:44;96418.78;;;14.23;83.93
72336;BME280;65062;48.446;8.834;2023-04-23T15:00:44;96417.66;;;14.92;84.59
72336;BME280;65062;48.446;8.834;2023-04-23T15:03:45;96413.41;;;15.24;79.89
72336;BME280;65062;48.446;8.834;2023-04-23T15:06:45;96414.00;;;15.42;75.57
72336;BME280;65062;48.446;8.834;2023-04-23T15:09:46;96416.00;;;15.19;78.55
72336;BME280;65062;48.446;8.834;2023-04-23T15:12:53;96407.28;;;15.18;78.76
72336;BME280;65062;48.446;8.834;2023-04-23T15:16:01;96391.84;;;15.27;80.98
72336;BME280;65062;48.446;8.834;2023-04-23T15:19:04;96380.44;;;15.54;81.35
72336;BME280;65062;48.446;8.834;2023-04-23T15:22:09;96385.72;;;15.76;78.90
72336;BME280;65062;48.446;8.834;2023-04-23T15:25:10;96375.63;;;15.35;78.98
72336;BME280;65062;48.446;8.834;2023-04-23T15:28:10;96384.22;;;14.92;79.91
72336;BME280;65062;48.446;8.834;2023-04-23T15:31:11;96398.47;;;14.63;82.25
72336;BME280;65062;48.446;8.834;2023-04-23T15:34:11;96391.38;;;14.35;83.52
72336;BME280;65062;48.446;8.834;2023-04-23T15:37:12;96400.56;;;14.21;83.89
72336;BME280;65062;48.446;8.834;2023-04-23T15:40:12;96410.78;;;14.06;84.05
72336;BME280;65062;48.446;8.834;2023-04-23T15:43:13;96438.16;;;13.94;85.34
72336;BME280;65062;48.446;8.834;2023-04-23T15:46:13;96526.88;;;13.87;84.98
72336;BME280;65062;48.446;8.834;2023-04-23T15:49:13;96591.59;;;12.58;94.30
72336;BME280;65062;48.446;8.834;2023-04-23T15:52:15;96489.72;;;12.01;88.07
72336;BME280;65062;48.446;8.834;2023-04-23T15:55:16;96511.06;;;11.62;84.72
72336;BME280;65062;48.446;8.834;2023-04-23T15:58:17;96483.97;;;11.50;88.12
72336;BME280;65062;48.446;8.834;2023-04-23T16:01:18;96479.75;;;11.73;89.25
72336;BME280;65062;48.446;8.834;2023-04-23T16:04:19;96489.44;;;12.09;87.47
72336;BME280;65062;48.446;8.834;2023-04-23T16:07:19;96491.72;;;12.23;87.35